Terminal Aerodrome Forecast
Issued by NWS

Home | Current Version | Previous Version | Text Only | Print | Product List | Glossary On
Versions: 1 2 3 4 5 6 7 8 9 10 11 12 13 14 15 16
000
FTUS46 KMTR 230520
TAFSNS
TAF
KSNS 230520Z 2306/2406 VRB04KT P6SM FEW015
     FM231600 14005KT P6SM FEW012
     FM231830 28010KT P6SM SKC
     FM232200 27013KT P6SM SKC
     FM240300 28006KT P6SM SKC=

USA.gov is the U.S. government's official web portal to all federal, state and local government web resources and services.